This is the latest recevied weather packets stored in our database for station/object SQ2WB-13. If no packets are shown the sender has not sent any weather packets the latest 10 day(s).
| Time | Temp. | Humidity | Pressure | Rain* | Wind** | Luminosity | Snow |
|---|---|---|---|---|---|---|---|
| 1778087701 | 20° C | 64% | 996.6 hPa | 0 mm | - | - | - |
| 1778086802 | 20° C | 63% | 996.2 hPa | 0 mm | - | - | - |
| 1778085901 | 20.56° C | 62% | 996.2 hPa | 0 mm | - | - | - |
| 1778085002 | 20.56° C | 61% | 996.2 hPa | 0 mm | - | - | - |
| 1778084101 | 20° C | 62% | 996.2 hPa | 0 mm | - | - | - |
| 1778083202 | 21.67° C | 59% | 996.2 hPa | 0 mm | - | - | - |
| 1778082301 | 21.67° C | 58% | 996.2 hPa | 0 mm | - | - | - |
| 1778081401 | 21.67° C | 57% | 996.2 hPa | 0 mm | - | - | - |
| 1778080502 | 20° C | 61% | 996.2 hPa | 0 mm | - | - | - |
| 1778079602 | 20° C | 60% | 996.2 hPa | 0 mm | - | - | - |
| 1778078701 | 20.56° C | 60% | 996.2 hPa | 0 mm | - | - | - |
| 1778077802 | 20.56° C | 59% | 996.2 hPa | 0 mm | - | - | - |
| 1778076902 | 20° C | 60% | 996.2 hPa | 0 mm | - | - | - |
| 1778076001 | 20° C | 61% | 996.6 hPa | 0 mm | - | - | - |
| 1778075101 | 20° C | 61% | 996.6 hPa | 0 mm | - | - | - |
| 1778074201 | 20° C | 62% | 996.6 hPa | 0 mm | - | - | - |
| 1778073303 | 18.89° C | 62% | 996.6 hPa | 0 mm | - | - | - |
| 1778072402 | 18.89° C | 63% | 996.6 hPa | 0 mm | - | - | - |
| 1778071501 | 20° C | 61% | 996.6 hPa | 0 mm | - | - | - |
| 1778070602 | 18.89° C | 62% | 996.9 hPa | 0 mm | - | - | - |
| 1778069701 | 18.89° C | 61% | 996.6 hPa | 0 mm | - | - | - |
| 1778068801 | 20° C | 59% | 996.9 hPa | 0 mm | - | - | - |
| 1778067902 | 18.89° C | 63% | 996.6 hPa | 0 mm | - | - | - |
| 1778067001 | 18.89° C | 63% | 996.6 hPa | 0 mm | - | - | - |
| 1778066102 | 18.89° C | 61% | 996.2 hPa | 0 mm | - | - | - |
* Rain latest hour (hover to see other rain measurements)
** Current wind speed in m/s (hover to see current wind gust speed)